Hartland, MI (48353)

10:37 AM EDT on June 30, 2015 (GMT -0400)
Dunham Lake | | Change Station
CLOSE
Current Station
Personal Weather Station
Location: Highland, MI
Elevation: 997 ft
Nearby Weather Stations

Elev 997 ft 42.65 °N, 83.68 °W | Updated 50 seconds ago

Overcast
Overcast
65.9 °F
Feels Like 65.9 °F
N
0.0
Wind Variable Wind from North
Gusts 0.0 mph

Today
High -- | Low -- °F
--% Chance of Precip.
Yesterday
High -- | Low -- °F
Precip. -- in
6:00 AM 9:16 PM
Waxing Gibbous, 97% visible
Pressure 29.83 in
Visibility 3.0 miles
Clouds Mostly Cloudy 600 ft
Mostly Cloudy 1300 ft
Overcast 2100 ft
Dew Point 61 °F
Humidity 84%
Rainfall in
Snow Depth Not available.
UV 2.0 out of 12
Pollen 3.20 out of 12
Air Quality Not available.
Flu Activity Sporadic
METAR KOZW 301214Z AUTO 00000KT 3SM -RA BKN006 BKN013 OVC021 17/16 A2983 RMK AO2 T01650160

More Conditions Fewer Conditions

Pressure 29.83 in
Visibility 3.0 miles
Clouds Mostly Cloudy 600 ft
Mostly Cloudy 1300 ft
Overcast 2100 ft
Dew Point 61 °F
Humidity 84%
Rainfall in
Snow Depth Not available.
UV 2.0 out of 12
Pollen 3.20 out of 12
Air Quality Not available.
Flu Activity Sporadic
METAR KOZW 301214Z AUTO 00000KT 3SM -RA BKN006 BKN013 OVC021 17/16 A2983 RMK AO2 T01650160

More Conditions Fewer Conditions

10-Day Weather Forecast

×

Almanac

Astronomy

Jun. 30, 2015 Rise Set
Actual Time
Civil Twilight
Nautical Twilight
Astronomical Twilight
Moon
Length of Visible Light
Length of Day
Tomorrow will be .
, % of the Moon is Illuminated

Today's Extremes

State Highs State Lows

Community

WunderPhotos

Upload Photos

1,834,008 photos uploaded!

WunderBlogs® & News

Nearby

Air Quality

  Air Quality AQ Index Pollutant
Not available.

Snow Depth

Station Depth Elevation

Earthquake Activity

City Distance Mag. Time & Date
Minimum magnitude displayed is 2.5.

Coastal Water Temperatures

Place Temperature

Stations

Nearby Weather Stations

Station Location Temp. Windchill Dew Point Humidity Wind Precip. Elev Updated Type